Portada
METAR-TAF:

METAR-TAF

Aeroports :

Phrae, Tailàndia

latitud: 18-10N, longitud: 100-10E, altitud: 161 m

Observació

L'informe es va fer fa 3 hores i 47 minuts, a les 01:00 UTC
Vent calma
Temperatura 18°C
Humitat 83%
Pressió 1013 hPa
Visibilitat: 3000 m
boirina

METAR: VTCP 010100Z 00000KT 3000 BR NSC 18/15 Q1013 NOSIG

Hora: 11:47 (04:47 UTC)

Pronòstic

L'informe es va fer fa 5 hores i 47 minuts, a les 23:00 UTC
Pronòstic vàlid del 01 a les 00 UTC al 01 a les 24 UTC
Vent 5 kt del Sud
Visibilitat: 1500 m
calitja
Evolucionant progressivament
l' 01 a les 06 UTC al 01 a les 08 UTC
Vent 5 kt del Sud/Sud-Oest
Visibilitat: 8000 m

TAF: VTCP 282300Z 0100/0124 19005KT 1500 HZ NSC BECMG 0106/0108 20005KT 8000 NSW

Observacions i pronòstics meteorològics de més de 4000 aeroports (METAR i TAF).

Les estacions disponibles són els punts grocs i vermells al mapa.

Posi el ratolí al punt desitjat per veure el nom de l'estació.

Feu clic per veure les observacions i els pronòstics meteorològics.

Per canviar el mapa: feu clic els botons verds amb una creu de color negre per apropar; al botó verd amb un guió per allunyar la imatge; o en les fletxes verdes per a mapes adjacents.


METAR-TAF: